Time;durP1;ratioP1;P1;durP2;ratioP2;P2;SDS_P1;SDS_P2;PMS_P1;PMS_P2;Temp;Humidity;BMP_temperature;BMP_pressure;BME280_temperature;BME280_humidity;BME280_pressure;Samples;Min_cycle;Max_cycle;Signal;HPM_P1;HPM_P2
2023/01/23 00:01:40;;;;;;;1.33;1.25;;;;;;;;;;5089341;28;20048;-65
2023/01/23 00:04:08;;;;;;;0.88;0.88;;;;;;;;;;5093497;28;20048;-66
2023/01/23 00:06:37;;;;;;;2.25;0.73;;;;;;;;;;5097593;28;20054;-65
2023/01/23 00:09:05;;;;;;;0.82;0.80;;;;;;;;;;5084058;28;20728;-65
2023/01/23 00:11:33;;;;;;;0.82;0.77;;;;;;;;;;5094858;28;20052;-66
2023/01/23 00:14:02;;;;;;;1.20;1.10;;;;;;;;;;5084389;28;20048;-65
2023/01/23 00:16:31;;;;;;;2.53;1.45;;;;;;;;;;5092371;28;20048;-70
2023/01/23 00:19:01;;;;;;;1.15;1.15;;;;;;;;;;5086523;28;20055;-66
2023/01/23 00:21:30;;;;;;;5.93;0.93;;;;;;;;;;5090616;28;20051;-66
2023/01/23 00:24:00;;;;;;;0.75;0.75;;;;;;;;;;5098838;28;20044;-66
2023/01/23 00:26:31;;;;;;;0.57;0.57;;;;;;;;;;5092633;28;20082;-70
2023/01/23 00:28:59;;;;;;;2.72;1.15;;;;;;;;;;5083593;28;20052;-65
2023/01/23 00:31:30;;;;;;;0.65;0.65;;;;;;;;;;5092304;28;20400;-65
2023/01/23 00:34:00;;;;;;;1.95;0.77;;;;;;;;;;5085764;28;20071;-67
2023/01/23 00:36:31;;;;;;;3.15;1.85;;;;;;;;;;5087356;28;20067;-65
2023/01/23 00:38:59;;;;;;;1.38;1.33;;;;;;;;;;5090998;28;20044;-66
2023/01/23 00:41:28;;;;;;;0.47;0.47;;;;;;;;;;5085292;28;20422;-66
2023/01/23 00:43:56;;;;;;;1.23;1.13;;;;;;;;;;5090892;28;20044;-66
2023/01/23 00:46:24;;;;;;;0.57;0.57;;;;;;;;;;5086731;28;20051;-66
2023/01/23 00:48:53;;;;;;;1.95;0.80;;;;;;;;;;5086798;28;20079;-65
2023/01/23 00:51:21;;;;;;;0.52;0.52;;;;;;;;;;5094285;28;20051;-66
2023/01/23 00:53:51;;;;;;;0.73;0.73;;;;;;;;;;5095099;28;20040;-65
2023/01/23 00:56:19;;;;;;;0.60;0.60;;;;;;;;;;5090666;28;20449;-66
2023/01/23 00:58:47;;;;;;;1.70;1.60;;;;;;;;;;5092910;28;20050;-65
2023/01/23 01:01:17;;;;;;;0.40;0.40;;;;;;;;;;5086433;28;20418;-69
2023/01/23 01:03:45;;;;;;;1.95;0.70;;;;;;;;;;5086092;28;20546;-69
2023/01/23 01:06:14;;;;;;;0.20;0.20;;;;;;;;;;5082490;28;20544;-66
2023/01/23 01:08:42;;;;;;;1.75;0.90;;;;;;;;;;5084166;28;20043;-66
2023/01/23 01:11:12;;;;;;;6.82;1.40;;;;;;;;;;5102133;28;20040;-65
2023/01/23 01:13:40;;;;;;;1.38;0.85;;;;;;;;;;5090330;28;20045;-66
2023/01/23 01:16:09;;;;;;;0.25;0.25;;;;;;;;;;5092537;28;20040;-65
2023/01/23 01:18:37;;;;;;;0.73;0.73;;;;;;;;;;5085698;28;20058;-65
2023/01/23 01:21:07;;;;;;;1.55;0.77;;;;;;;;;;5087077;28;20511;-65
2023/01/23 01:23:35;;;;;;;2.80;0.47;;;;;;;;;;5104911;28;21506;-66
2023/01/23 01:26:04;;;;;;;0.30;0.30;;;;;;;;;;5088532;28;20480;-65
2023/01/23 01:28:34;;;;;;;0.93;0.93;;;;;;;;;;5090412;28;20048;-65
2023/01/23 01:31:04;;;;;;;1.02;0.95;;;;;;;;;;5090662;28;20044;-65
2023/01/23 01:33:33;;;;;;;0.55;0.55;;;;;;;;;;5085544;28;20052;-67
2023/01/23 01:36:01;;;;;;;0.85;0.85;;;;;;;;;;5082231;28;20491;-66
2023/01/23 01:38:30;;;;;;;0.65;0.65;;;;;;;;;;5087566;28;20505;-70
2023/01/23 01:40:58;;;;;;;2.30;0.73;;;;;;;;;;5091026;28;20070;-65
2023/01/23 01:43:27;;;;;;;0.70;0.70;;;;;;;;;;5085075;28;20264;-65
2023/01/23 01:46:08;;;;;;;3.25;0.77;;;;;;;;;;5087842;28;20048;-66
2023/01/23 01:48:37;;;;;;;1.42;1.33;;;;;;;;;;5089253;28;20077;-67
2023/01/23 01:51:09;;;;;;;0.38;0.38;;;;;;;;;;5085731;28;20049;-65
2023/01/23 01:53:38;;;;;;;0.20;0.20;;;;;;;;;;5091637;28;20097;-65
2023/01/23 01:56:08;;;;;;;0.40;0.40;;;;;;;;;;5089973;28;20056;-65
2023/01/23 01:58:37;;;;;;;1.75;0.60;;;;;;;;;;5090616;28;20059;-66
2023/01/23 02:01:06;;;;;;;0.65;0.65;;;;;;;;;;5090008;28;20052;-66
2023/01/23 02:03:35;;;;;;;0.50;0.50;;;;;;;;;;5085737;28;20567;-66
2023/01/23 02:06:03;;;;;;;0.20;0.20;;;;;;;;;;5084776;28;20043;-65
2023/01/23 02:08:34;;;;;;;3.55;1.08;;;;;;;;;;5086675;28;20051;-67
2023/01/23 02:11:04;;;;;;;2.28;0.98;;;;;;;;;;5089852;28;20044;-65
2023/01/23 02:13:35;;;;;;;1.42;0.55;;;;;;;;;;5097526;28;20062;-65
2023/01/23 02:16:04;;;;;;;0.57;0.57;;;;;;;;;;5082955;28;20055;-65
2023/01/23 02:18:35;;;;;;;1.77;0.57;;;;;;;;;;5084588;28;20040;-66
2023/01/23 02:21:05;;;;;;;2.00;0.40;;;;;;;;;;5083345;28;20484;-65
2023/01/23 02:23:39;;;;;;;1.02;0.75;;;;;;;;;;5095496;28;20047;-65
2023/01/23 02:26:11;;;;;;;1.65;1.55;;;;;;;;;;5093200;28;20058;-65
2023/01/23 02:28:41;;;;;;;0.63;0.63;;;;;;;;;;5087162;28;20059;-65
2023/01/23 02:31:10;;;;;;;0.60;0.60;;;;;;;;;;5089403;28;20046;-65
2023/01/23 02:33:49;;;;;;;0.40;0.40;;;;;;;;;;5099131;28;20109;-66
2023/01/23 02:36:18;;;;;;;0.43;0.43;;;;;;;;;;5095952;28;20052;-65
2023/01/23 02:38:50;;;;;;;2.28;2.08;;;;;;;;;;5089768;28;20396;-65
2023/01/23 02:41:23;;;;;;;0.35;0.35;;;;;;;;;;5086310;28;20537;-66
2023/01/23 02:43:51;;;;;;;1.48;0.77;;;;;;;;;;5084320;28;20415;-67
2023/01/23 02:46:20;;;;;;;0.80;0.70;;;;;;;;;;5087298;28;20059;-65
2023/01/23 02:48:48;;;;;;;1.17;0.43;;;;;;;;;;5095243;28;20056;-67
2023/01/23 02:51:16;;;;;;;0.68;0.68;;;;;;;;;;5106732;28;20050;-64
2023/01/23 02:53:45;;;;;;;7.00;1.27;;;;;;;;;;5088763;28;20093;-66
2023/01/23 02:56:13;;;;;;;2.28;0.35;;;;;;;;;;5094726;28;20677;-65
2023/01/23 03:01:30;;;;;;;0.50;0.50;;;;;;;;;;5082668;28;20411;-65
2023/01/23 03:04:02;;;;;;;0.65;0.65;;;;;;;;;;5082572;28;20049;-65
2023/01/23 03:06:35;;;;;;;1.38;1.27;;;;;;;;;;5088446;28;20113;-65
2023/01/23 03:09:04;;;;;;;1.05;1.05;;;;;;;;;;5089342;28;20044;-66
2023/01/23 03:11:33;;;;;;;1.25;1.17;;;;;;;;;;5089287;28;20051;-65
2023/01/23 03:14:02;;;;;;;0.50;0.50;;;;;;;;;;5087278;28;20059;-65
2023/01/23 03:16:31;;;;;;;1.27;1.17;;;;;;;;;;5077016;28;20369;-65
2023/01/23 03:19:03;;;;;;;0.57;0.57;;;;;;;;;;5088291;28;20059;-65
2023/01/23 03:21:32;;;;;;;0.38;0.38;;;;;;;;;;5091467;28;20139;-65
2023/01/23 03:24:03;;;;;;;2.00;1.20;;;;;;;;;;5093851;28;20052;-66
2023/01/23 03:26:31;;;;;;;4.22;1.20;;;;;;;;;;5093578;28;20044;-66
2023/01/23 03:31:47;;;;;;;0.95;0.95;;;;;;;;;;5077416;28;20040;-65
2023/01/23 03:34:16;;;;;;;0.30;0.30;;;;;;;;;;5081642;28;20048;-70
2023/01/23 03:36:45;;;;;;;0.40;0.40;;;;;;;;;;5082855;28;20066;-65
2023/01/23 03:41:59;;;;;;;1.25;0.73;;;;;;;;;;5086094;28;20048;-66
2023/01/23 03:44:27;;;;;;;0.73;0.73;;;;;;;;;;5088903;28;20052;-66
2023/01/23 03:46:57;;;;;;;0.77;0.77;;;;;;;;;;5087832;28;20048;-66
2023/01/23 03:49:25;;;;;;;1.10;0.52;;;;;;;;;;5088952;28;20055;-66
2023/01/23 03:51:53;;;;;;;0.60;0.60;;;;;;;;;;5061631;28;20053;-65
2023/01/23 03:54:21;;;;;;;1.67;0.77;;;;;;;;;;5068210;28;20484;-66
2023/01/23 03:56:50;;;;;;;1.88;0.85;;;;;;;;;;5077964;28;20056;-65
2023/01/23 03:59:18;;;;;;;0.63;0.63;;;;;;;;;;5070918;28;20055;-68
2023/01/23 04:01:47;;;;;;;2.28;1.00;;;;;;;;;;5073703;28;20052;-65
2023/01/23 04:04:16;;;;;;;0.63;0.63;;;;;;;;;;5072811;28;20140;-66
2023/01/23 04:06:44;;;;;;;5.63;0.80;;;;;;;;;;5083903;28;20036;-66
2023/01/23 04:09:13;;;;;;;0.60;0.60;;;;;;;;;;5076585;28;20053;-65
2023/01/23 04:11:41;;;;;;;0.50;0.50;;;;;;;;;;5085342;28;20060;-68
2023/01/23 04:14:09;;;;;;;1.35;0.70;;;;;;;;;;5078928;28;20386;-66
2023/01/23 04:16:37;;;;;;;0.60;0.60;;;;;;;;;;5083555;28;20579;-65
2023/01/23 04:19:06;;;;;;;0.47;0.47;;;;;;;;;;5078798;28;20117;-65
2023/01/23 04:21:35;;;;;;;6.70;0.95;;;;;;;;;;5075829;28;20489;-67
2023/01/23 04:24:04;;;;;;;0.73;0.73;;;;;;;;;;5070839;28;20607;-66
2023/01/23 04:26:33;;;;;;;0.90;0.90;;;;;;;;;;5074736;28;20049;-65
2023/01/23 04:29:02;;;;;;;1.02;0.95;;;;;;;;;;5079851;28;20086;-65
2023/01/23 04:31:30;;;;;;;0.75;0.75;;;;;;;;;;5071998;28;20051;-70
2023/01/23 04:33:59;;;;;;;0.77;0.77;;;;;;;;;;5066383;28;20091;-65
2023/01/23 04:36:27;;;;;;;0.52;0.52;;;;;;;;;;5071395;28;20386;-66
2023/01/23 04:38:57;;;;;;;0.77;0.77;;;;;;;;;;5071836;28;20036;-65
2023/01/23 04:41:27;;;;;;;0.60;0.60;;;;;;;;;;5075976;28;20146;-65
2023/01/23 04:43:55;;;;;;;0.70;0.70;;;;;;;;;;5074253;28;20059;-65
2023/01/23 04:46:23;;;;;;;1.20;1.20;;;;;;;;;;5066681;28;20056;-65
2023/01/23 04:48:52;;;;;;;0.63;0.63;;;;;;;;;;5094094;28;20082;-66
2023/01/23 04:51:21;;;;;;;0.73;0.73;;;;;;;;;;5089737;28;20051;-65
2023/01/23 04:53:49;;;;;;;1.65;0.52;;;;;;;;;;5091340;28;20048;-66
2023/01/23 04:56:19;;;;;;;0.63;0.63;;;;;;;;;;5090544;28;20058;-66
2023/01/23 04:58:48;;;;;;;0.60;0.60;;;;;;;;;;5091189;28;20051;-66
2023/01/23 05:01:21;;;;;;;0.40;0.40;;;;;;;;;;5086989;28;20066;-65
2023/01/23 05:03:50;;;;;;;0.93;0.80;;;;;;;;;;5094876;28;20144;-65
2023/01/23 05:06:18;;;;;;;0.70;0.70;;;;;;;;;;5091086;28;20515;-65
2023/01/23 05:08:46;;;;;;;2.92;0.57;;;;;;;;;;5098267;28;20044;-65
2023/01/23 05:11:15;;;;;;;1.02;0.65;;;;;;;;;;5090185;28;20048;-65
2023/01/23 05:13:44;;;;;;;2.45;2.10;;;;;;;;;;5091742;28;20492;-65
2023/01/23 05:16:13;;;;;;;1.88;0.98;;;;;;;;;;5083368;28;20052;-66
2023/01/23 05:18:41;;;;;;;1.48;1.38;;;;;;;;;;5089143;28;20134;-65
2023/01/23 05:21:09;;;;;;;2.30;1.55;;;;;;;;;;5081839;28;20052;-65
2023/01/23 05:23:37;;;;;;;0.90;0.65;;;;;;;;;;5088696;28;20142;-66
2023/01/23 05:26:06;;;;;;;0.40;0.40;;;;;;;;;;5090927;28;20084;-68
2023/01/23 05:28:34;;;;;;;1.55;1.45;;;;;;;;;;5102036;28;20052;-65
2023/01/23 05:31:04;;;;;;;0.57;0.57;;;;;;;;;;5083787;28;20051;-65
2023/01/23 05:33:32;;;;;;;4.95;0.77;;;;;;;;;;5087605;28;20048;-65
2023/01/23 05:36:00;;;;;;;1.02;1.02;;;;;;;;;;5078895;28;20097;-66
2023/01/23 05:38:29;;;;;;;0.32;0.32;;;;;;;;;;5086970;28;20050;-66
2023/01/23 05:40:58;;;;;;;0.50;0.50;;;;;;;;;;5088576;28;20577;-66
2023/01/23 05:43:26;;;;;;;1.27;0.70;;;;;;;;;;5087815;28;20380;-67
2023/01/23 05:45:54;;;;;;;0.40;0.40;;;;;;;;;;5082946;28;20044;-66
2023/01/23 05:48:24;;;;;;;3.95;1.35;;;;;;;;;;5078709;28;20105;-71
2023/01/23 05:50:52;;;;;;;0.82;0.82;;;;;;;;;;5083388;28;20047;-66
2023/01/23 05:53:20;;;;;;;0.52;0.50;;;;;;;;;;5078155;28;20492;-66
2023/01/23 05:55:49;;;;;;;0.30;0.30;;;;;;;;;;5092772;28;20048;-66
2023/01/23 05:58:17;;;;;;;2.97;0.70;;;;;;;;;;5088348;28;20048;-65
2023/01/23 06:00:45;;;;;;;1.08;0.98;;;;;;;;;;5086006;28;20052;-71
2023/01/23 06:03:13;;;;;;;3.28;0.60;;;;;;;;;;5080648;28;20066;-65
2023/01/23 06:05:43;;;;;;;4.63;0.85;;;;;;;;;;5080894;28;20054;-66
2023/01/23 06:08:12;;;;;;;1.98;1.42;;;;;;;;;;5083666;28;20361;-63
2023/01/23 06:10:40;;;;;;;0.65;0.63;;;;;;;;;;5091878;28;20500;-65
2023/01/23 06:13:08;;;;;;;3.35;0.85;;;;;;;;;;5088629;28;20078;-66
2023/01/23 06:15:36;;;;;;;0.38;0.38;;;;;;;;;;5089153;28;20063;-66
2023/01/23 06:18:05;;;;;;;1.25;0.85;;;;;;;;;;5086036;28;20071;-64
2023/01/23 06:20:33;;;;;;;0.60;0.60;;;;;;;;;;5087444;28;20051;-63
2023/01/23 06:23:03;;;;;;;1.40;1.38;;;;;;;;;;5082729;28;20048;-64
2023/01/23 06:25:31;;;;;;;1.50;0.80;;;;;;;;;;5080339;28;20052;-67
2023/01/23 06:27:59;;;;;;;5.70;0.80;;;;;;;;;;5097459;28;20044;-71
2023/01/23 06:30:27;;;;;;;0.38;0.38;;;;;;;;;;5090102;28;20046;-67
2023/01/23 06:32:56;;;;;;;0.75;0.70;;;;;;;;;;5076810;28;20048;-72
2023/01/23 06:35:24;;;;;;;1.55;1.27;;;;;;;;;;5085332;28;20100;-70
2023/01/23 06:37:52;;;;;;;0.73;0.73;;;;;;;;;;5090305;28;20405;-67
2023/01/23 06:40:22;;;;;;;2.03;1.45;;;;;;;;;;5089449;28;20051;-70
2023/01/23 06:42:55;;;;;;;5.55;2.17;;;;;;;;;;5094624;28;20062;-70
2023/01/23 06:45:23;;;;;;;0.28;0.28;;;;;;;;;;5080925;28;20052;-69
2023/01/23 06:47:52;;;;;;;1.15;0.63;;;;;;;;;;5086751;28;20396;-68
2023/01/23 06:50:20;;;;;;;1.23;1.17;;;;;;;;;;5087538;28;20309;-70
2023/01/23 06:52:49;;;;;;;4.20;0.93;;;;;;;;;;5088924;28;20522;-69
2023/01/23 06:55:17;;;;;;;1.90;1.27;;;;;;;;;;5085991;28;20062;-70
2023/01/23 06:57:47;;;;;;;0.28;0.28;;;;;;;;;;5090178;28;20047;-69
2023/01/23 07:00:16;;;;;;;1.10;1.00;;;;;;;;;;5086020;28;20390;-69
2023/01/23 07:02:44;;;;;;;0.52;0.52;;;;;;;;;;5083395;28;20056;-68
2023/01/23 07:05:13;;;;;;;0.88;0.88;;;;;;;;;;5088774;28;20052;-71
2023/01/23 07:07:41;;;;;;;0.93;0.93;;;;;;;;;;5089255;28;20496;-69
2023/01/23 07:10:10;;;;;;;0.25;0.25;;;;;;;;;;5088351;28;20044;-69
2023/01/23 07:12:39;;;;;;;1.25;1.15;;;;;;;;;;5082783;28;20044;-70
2023/01/23 07:15:09;;;;;;;1.75;1.33;;;;;;;;;;5087285;28;20044;-68
2023/01/23 07:17:37;;;;;;;5.97;1.20;;;;;;;;;;5090949;28;20564;-69
2023/01/23 07:20:06;;;;;;;1.77;1.13;;;;;;;;;;5090388;28;20492;-69
2023/01/23 07:22:35;;;;;;;0.75;0.75;;;;;;;;;;5093396;28;20417;-69
2023/01/23 07:25:03;;;;;;;0.90;0.90;;;;;;;;;;5093444;28;20491;-68
2023/01/23 07:27:32;;;;;;;0.88;0.88;;;;;;;;;;5092376;28;20052;-68
2023/01/23 07:30:00;;;;;;;0.55;0.55;;;;;;;;;;5092948;28;20491;-69
2023/01/23 07:32:29;;;;;;;1.55;1.40;;;;;;;;;;5088638;28;20058;-69
2023/01/23 07:34:58;;;;;;;0.88;0.55;;;;;;;;;;5092203;28;20051;-68
2023/01/23 07:37:26;;;;;;;1.00;0.93;;;;;;;;;;5093294;28;20139;-68
2023/01/23 07:39:54;;;;;;;2.65;1.02;;;;;;;;;;5092720;28;20555;-68
2023/01/23 07:42:23;;;;;;;0.98;0.88;;;;;;;;;;5084079;28;20403;-69
2023/01/23 07:44:51;;;;;;;1.58;1.15;;;;;;;;;;5088501;28;20056;-68
2023/01/23 07:47:20;;;;;;;0.98;0.88;;;;;;;;;;5092588;28;20426;-70
2023/01/23 07:49:49;;;;;;;2.70;0.93;;;;;;;;;;5090778;28;20064;-68
2023/01/23 07:52:17;;;;;;;2.10;0.75;;;;;;;;;;5092064;28;20488;-72
2023/01/23 07:54:46;;;;;;;1.27;0.82;;;;;;;;;;5086609;28;20130;-69
2023/01/23 07:57:14;;;;;;;3.50;0.82;;;;;;;;;;5088219;28;20427;-73
2023/01/23 07:59:43;;;;;;;1.13;1.13;;;;;;;;;;5098063;28;20170;-76
2023/01/23 08:02:11;;;;;;;0.63;0.63;;;;;;;;;;5082579;28;20054;-71
2023/01/23 08:04:40;;;;;;;1.00;0.88;;;;;;;;;;5088887;28;20411;-76
2023/01/23 08:07:10;;;;;;;0.82;0.82;;;;;;;;;;5089656;28;20416;-72
2023/01/23 08:09:39;;;;;;;0.63;0.50;;;;;;;;;;5089647;28;20051;-74
2023/01/23 08:12:07;;;;;;;6.47;1.83;;;;;;;;;;5092095;28;20086;-70
2023/01/23 08:14:36;;;;;;;0.47;0.47;;;;;;;;;;5090478;28;20052;-69
2023/01/23 08:17:04;;;;;;;0.70;0.70;;;;;;;;;;5086157;28;20125;-69
2023/01/23 08:19:32;;;;;;;1.10;1.02;;;;;;;;;;5090150;28;20049;-72
2023/01/23 08:22:01;;;;;;;1.38;1.30;;;;;;;;;;5086624;28;20066;-72
2023/01/23 08:24:31;;;;;;;0.57;0.57;;;;;;;;;;5096129;28;20054;-69
2023/01/23 08:26:59;;;;;;;2.10;1.95;;;;;;;;;;5090530;28;20418;-68
2023/01/23 08:29:28;;;;;;;0.40;0.40;;;;;;;;;;5075240;28;20048;-73
2023/01/23 08:31:56;;;;;;;2.90;0.57;;;;;;;;;;5088839;28;20056;-73
2023/01/23 08:34:25;;;;;;;0.82;0.82;;;;;;;;;;5090306;28;20136;-71
2023/01/23 08:36:53;;;;;;;5.38;1.85;;;;;;;;;;5088339;28;20130;-68
2023/01/23 08:39:23;;;;;;;0.55;0.55;;;;;;;;;;5089963;28;20056;-68
2023/01/23 08:41:53;;;;;;;3.92;2.10;;;;;;;;;;5089229;28;20052;-71
2023/01/23 08:44:21;;;;;;;2.30;1.05;;;;;;;;;;5089979;28;20416;-71
2023/01/23 08:46:49;;;;;;;0.40;0.40;;;;;;;;;;5088062;28;20119;-70
2023/01/23 08:49:20;;;;;;;1.90;1.73;;;;;;;;;;5089702;28;20658;-67
2023/01/23 08:51:48;;;;;;;0.30;0.30;;;;;;;;;;5089907;28;20135;-71
2023/01/23 08:54:16;;;;;;;3.30;1.40;;;;;;;;;;5084836;28;20048;-71
2023/01/23 08:56:45;;;;;;;0.25;0.20;;;;;;;;;;5094866;28;20048;-77
2023/01/23 08:59:15;;;;;;;0.47;0.47;;;;;;;;;;5092225;28;20070;-70
2023/01/23 09:01:45;;;;;;;1.95;1.35;;;;;;;;;;5080850;28;20040;-68
2023/01/23 09:04:16;;;;;;;0.73;0.73;;;;;;;;;;5088469;28;20049;-70
2023/01/23 09:06:45;;;;;;;1.13;1.08;;;;;;;;;;5084430;28;20105;-68
2023/01/23 09:09:13;;;;;;;0.77;0.63;;;;;;;;;;5100560;28;20489;-68
2023/01/23 09:11:42;;;;;;;0.30;0.30;;;;;;;;;;5090988;28;20578;-69
2023/01/23 09:14:10;;;;;;;0.80;0.75;;;;;;;;;;5088298;28;20530;-69
2023/01/23 09:16:40;;;;;;;2.05;1.13;;;;;;;;;;5088159;28;20147;-68
2023/01/23 09:19:10;;;;;;;0.30;0.30;;;;;;;;;;5084933;28;20072;-69
2023/01/23 09:21:39;;;;;;;2.92;1.02;;;;;;;;;;5086242;28;20044;-68
2023/01/23 09:24:08;;;;;;;0.20;0.20;;;;;;;;;;5086235;28;20048;-68
2023/01/23 09:26:37;;;;;;;4.30;1.15;;;;;;;;;;5091628;28;20109;-67
2023/01/23 09:29:05;;;;;;;0.63;0.63;;;;;;;;;;5092299;28;20052;-68
2023/01/23 09:31:35;;;;;;;0.80;0.68;;;;;;;;;;5082610;28;20044;-67
2023/01/23 09:34:06;;;;;;;1.48;0.95;;;;;;;;;;5093194;28;20502;-71
2023/01/23 09:36:35;;;;;;;0.30;0.30;;;;;;;;;;5088057;28;20044;-67
2023/01/23 09:39:11;;;;;;;0.55;0.55;;;;;;;;;;5086156;28;20051;-69
2023/01/23 09:41:40;;;;;;;0.88;0.88;;;;;;;;;;5086731;28;20408;-68
2023/01/23 09:44:11;;;;;;;0.90;0.70;;;;;;;;;;5086378;28;20166;-71
2023/01/23 09:46:41;;;;;;;1.40;1.33;;;;;;;;;;5089654;28;20070;-70
2023/01/23 09:49:14;;;;;;;3.95;0.82;;;;;;;;;;5090561;28;20480;-68
2023/01/23 09:51:48;;;;;;;1.00;0.90;;;;;;;;;;5091547;28;20060;-68
2023/01/23 09:54:19;;;;;;;0.40;0.40;;;;;;;;;;5087688;28;20051;-68
2023/01/23 09:56:49;;;;;;;1.48;1.38;;;;;;;;;;5083983;28;20076;-76
2023/01/23 09:59:23;;;;;;;0.70;0.65;;;;;;;;;;5084946;28;20056;-68
2023/01/23 10:01:52;;;;;;;;;;;;;;;;;;5083790;28;20128;-68
2023/01/23 10:04:22;;;;;;;0.80;0.80;;;;;;;;;;5084302;28;19989;-68
2023/01/23 10:07:01;;;;;;;0.47;0.43;;;;;;;;;;5091845;28;20048;-68
2023/01/23 10:09:40;;;;;;;0.35;0.35;;;;;;;;;;5095168;28;20076;-67
2023/01/23 10:12:16;;;;;;;0.25;0.25;;;;;;;;;;5084355;28;20151;-69
2023/01/23 10:15:01;;;;;;;0.93;0.85;;;;;;;;;;5086286;28;20453;-67
2023/01/23 10:17:29;;;;;;;;;;;;;;;;;;5083907;28;20048;-71
2023/01/23 10:20:07;;;;;;;0.45;0.45;;;;;;;;;;5091066;28;19920;-68
2023/01/23 10:22:38;;;;;;;0.35;0.35;;;;;;;;;;5084041;28;20044;-67
2023/01/23 10:25:12;;;;;;;1.40;1.13;;;;;;;;;;5091617;28;20052;-68
2023/01/23 10:27:42;;;;;;;4.53;0.82;;;;;;;;;;5090448;28;20044;-68
2023/01/23 10:30:20;;;;;;;1.00;0.98;;;;;;;;;;5086685;28;20056;-68
2023/01/23 10:32:51;;;;;;;1.80;1.70;;;;;;;;;;5080700;28;20052;-69
2023/01/23 10:35:24;;;;;;;2.33;1.75;;;;;;;;;;5094385;28;20052;-68
2023/01/23 10:37:56;;;;;;;1.45;0.98;;;;;;;;;;5088011;28;20075;-68
2023/01/23 10:43:12;;;;;;;2.10;1.02;;;;;;;;;;5087038;28;20495;-68
2023/01/23 10:45:41;;;;;;;1.13;1.00;;;;;;;;;;5081766;28;20131;-68
2023/01/23 10:48:29;;;;;;;1.80;0.93;;;;;;;;;;5075969;28;20094;-67
2023/01/23 10:50:59;;;;;;;0.68;0.68;;;;;;;;;;5070928;28;20048;-67
2023/01/23 10:53:28;;;;;;;0.98;0.80;;;;;;;;;;5065375;28;20049;-72
2023/01/23 10:55:59;;;;;;;0.52;0.52;;;;;;;;;;5061710;28;20041;-74
2023/01/23 10:58:29;;;;;;;3.97;1.10;;;;;;;;;;5072326;28;20056;-71
2023/01/23 11:00:58;;;;;;;1.23;0.90;;;;;;;;;;5068035;28;20446;-69
2023/01/23 11:03:29;;;;;;;1.70;0.90;;;;;;;;;;5067183;28;20067;-70
2023/01/23 11:06:01;;;;;;;3.35;1.05;;;;;;;;;;5074769;28;20079;-69
2023/01/23 11:08:31;;;;;;;2.95;2.17;;;;;;;;;;5064238;28;20598;-70
2023/01/23 11:11:23;;;;;;;1.13;0.70;;;;;;;;;;5070587;28;20045;-68
2023/01/23 11:14:04;;;;;;;0.80;0.80;;;;;;;;;;5068215;28;20125;-68
2023/01/23 11:16:33;;;;;;;1.33;1.33;;;;;;;;;;5057891;28;20048;-68
2023/01/23 11:19:11;;;;;;;3.40;0.60;;;;;;;;;;5074000;28;20049;-67
2023/01/23 11:21:53;;;;;;;1.70;0.70;;;;;;;;;;5062575;28;20049;-68
2023/01/23 11:24:27;;;;;;;0.52;0.50;;;;;;;;;;5078455;28;20114;-67
2023/01/23 11:27:16;;;;;;;6.22;0.85;;;;;;;;;;5083895;28;20396;-68
2023/01/23 11:29:52;;;;;;;0.30;0.30;;;;;;;;;;5075735;28;20484;-72
2023/01/23 11:32:21;;;;;;;0.60;0.60;;;;;;;;;;5068823;28;20139;-68
2023/01/23 11:34:52;;;;;;;2.80;0.75;;;;;;;;;;5080376;28;20477;-68
2023/01/23 11:37:25;;;;;;;2.65;1.42;;;;;;;;;;5086750;28;20458;-68
2023/01/23 11:39:55;;;;;;;1.75;0.60;;;;;;;;;;5072504;28;20051;-67
2023/01/23 11:42:25;;;;;;;1.90;1.67;;;;;;;;;;5067458;28;20057;-68
2023/01/23 11:44:56;;;;;;;0.57;0.57;;;;;;;;;;5066093;28;20149;-68
2023/01/23 11:47:29;;;;;;;2.30;1.20;;;;;;;;;;5076223;28;20127;-68
2023/01/23 11:50:06;;;;;;;0.70;0.70;;;;;;;;;;5079426;28;20132;-68
2023/01/23 11:52:42;;;;;;;0.15;0.15;;;;;;;;;;5071956;28;20053;-68
2023/01/23 11:55:20;;;;;;;2.88;0.95;;;;;;;;;;5077565;28;20051;-68
2023/01/23 11:57:56;;;;;;;1.15;0.45;;;;;;;;;;5063488;28;20045;-68
2023/01/23 12:00:30;;;;;;;1.73;1.58;;;;;;;;;;5064980;28;20048;-68
2023/01/23 12:03:16;;;;;;;1.25;1.17;;;;;;;;;;5060157;28;20045;-68
2023/01/23 12:06:09;;;;;;;0.60;0.60;;;;;;;;;;5077409;28;20381;-68
2023/01/23 12:08:53;;;;;;;1.80;0.75;;;;;;;;;;5070138;28;20058;-70
2023/01/23 12:11:24;;;;;;;0.57;0.57;;;;;;;;;;5080213;28;20124;-74
2023/01/23 12:14:03;;;;;;;1.92;1.83;;;;;;;;;;5071789;28;20139;-67
2023/01/23 12:16:49;;;;;;;2.72;0.80;;;;;;;;;;5065087;28;20048;-67
2023/01/23 12:19:23;;;;;;;0.60;0.60;;;;;;;;;;5075092;28;20063;-68
2023/01/23 12:21:55;;;;;;;1.52;1.33;;;;;;;;;;5070071;28;20055;-68
2023/01/23 12:24:32;;;;;;;1.98;1.73;;;;;;;;;;5073741;28;20056;-67
2023/01/23 12:27:03;;;;;;;1.45;1.25;;;;;;;;;;5068909;28;20040;-68
2023/01/23 12:29:46;;;;;;;1.65;1.42;;;;;;;;;;5080268;28;20139;-68
2023/01/23 12:32:26;;;;;;;0.75;0.32;;;;;;;;;;5078565;28;20048;-68
2023/01/23 12:35:04;;;;;;;2.70;1.05;;;;;;;;;;5091032;28;20047;-71
2023/01/23 12:37:38;;;;;;;2.30;1.05;;;;;;;;;;5086231;28;20411;-68
2023/01/23 12:40:08;;;;;;;;;;;;;;;;;;5069691;28;20067;-68
2023/01/23 12:42:41;;;;;;;4.20;1.05;;;;;;;;;;5082555;28;19920;-68
2023/01/23 12:45:16;;;;;;;0.93;0.50;;;;;;;;;;5073479;28;20051;-68
2023/01/23 12:47:48;;;;;;;1.00;0.90;;;;;;;;;;5068339;28;20094;-70
2023/01/23 12:50:20;;;;;;;1.58;1.27;;;;;;;;;;5090180;28;20564;-68
2023/01/23 12:52:51;;;;;;;0.38;0.38;;;;;;;;;;5093033;28;20052;-71
2023/01/23 12:55:21;;;;;;;1.73;0.98;;;;;;;;;;5088482;28;20044;-71
2023/01/23 12:57:53;;;;;;;1.13;0.95;;;;;;;;;;5090724;28;20578;-68
2023/01/23 13:00:36;;;;;;;5.90;2.03;;;;;;;;;;5084604;28;20040;-70
2023/01/23 13:03:14;;;;;;;1.02;0.95;;;;;;;;;;5088318;28;20044;-69
2023/01/23 13:05:47;;;;;;;1.25;1.15;;;;;;;;;;5097024;28;20059;-68
2023/01/23 13:08:22;;;;;;;1.70;1.30;;;;;;;;;;5098429;28;20101;-71
2023/01/23 13:13:48;;;;;;;1.70;1.17;;;;;;;;;;5091802;28;20056;-68
2023/01/23 13:16:17;;;;;;;0.50;0.43;;;;;;;;;;5088152;28;20047;-68
2023/01/23 13:27:46;;;;;;;5.60;1.70;;;;;;;;;;5091548;28;20143;-68
2023/01/23 13:30:35;;;;;;;0.85;0.75;;;;;;;;;;5088057;28;20146;-67
2023/01/23 13:36:14;;;;;;;3.08;2.78;;;;;;;;;;5131595;27;20748;-69
2023/01/23 13:38:43;;;;;;;5.18;2.28;;;;;;;;;;5091236;27;20052;-78
2023/01/23 13:41:29;;;;;;;1.70;1.10;;;;;;;;;;5071186;28;20036;-68
2023/01/23 13:44:03;;;;;;;1.33;1.15;;;;;;;;;;5069793;28;20478;-70
2023/01/23 13:46:43;;;;;;;1.20;1.10;;;;;;;;;;5076203;28;20052;-68
2023/01/23 13:58:41;;;;;;;21.77;8.57;;;;;;;;;;4871135;29;20049;-70
2023/01/23 14:10:27;;;;;;;0.68;0.68;;;;;;;;;;4758701;29;20059;-69
2023/01/23 14:13:09;;;;;;;;;;;;;;;;;;4718289;30;20068;-69
2023/01/23 14:16:12;;;;;;;0.70;0.70;;;;;;;;;;4692153;30;20037;-68
2023/01/23 14:18:55;;;;;;;3.17;1.60;;;;;;;;;;4695439;30;20057;-71
2023/01/23 14:22:00;;;;;;;1.05;0.95;;;;;;;;;;4702777;30;20203;-75
2023/01/23 14:24:43;;;;;;;2.33;1.67;;;;;;;;;;4706562;30;20382;-75
2023/01/23 14:27:19;;;;;;;0.88;0.85;;;;;;;;;;4732365;30;20335;-69
2023/01/23 14:29:56;;;;;;;1.00;1.00;;;;;;;;;;4757259;29;20116;-68
2023/01/23 14:32:25;;;;;;;1.92;1.58;;;;;;;;;;4865897;29;20154;-71
2023/01/23 14:34:53;;;;;;;2.70;2.22;;;;;;;;;;4889909;29;20053;-68
2023/01/23 14:37:22;;;;;;;1.48;0.73;;;;;;;;;;4891776;29;20457;-69
2023/01/23 14:39:51;;;;;;;1.10;1.10;;;;;;;;;;4888730;29;20057;-69
2023/01/23 14:42:26;;;;;;;1.77;1.15;;;;;;;;;;4888168;29;20496;-69
2023/01/23 14:44:55;;;;;;;3.28;2.15;;;;;;;;;;4891143;29;20406;-69
2023/01/23 14:47:27;;;;;;;1.95;1.30;;;;;;;;;;4938765;29;20055;-69
2023/01/23 14:50:01;;;;;;;0.95;0.73;;;;;;;;;;4997650;28;20053;-69
2023/01/23 14:52:31;;;;;;;2.72;1.67;;;;;;;;;;5031448;28;20077;-69
2023/01/23 14:55:00;;;;;;;1.17;1.05;;;;;;;;;;5032750;28;20050;-69
2023/01/23 14:57:37;;;;;;;1.42;1.30;;;;;;;;;;5033499;28;20073;-71
2023/01/23 15:00:06;;;;;;;6.47;2.15;;;;;;;;;;5038068;28;20061;-71
2023/01/23 15:02:36;;;;;;;9.20;3.65;;;;;;;;;;5028451;28;20126;-72
2023/01/23 15:05:08;;;;;;;1.50;1.13;;;;;;;;;;5028158;28;20087;-70
2023/01/23 15:07:43;;;;;;;1.58;0.82;;;;;;;;;;5028156;28;20502;-70
2023/01/23 15:10:14;;;;;;;0.98;0.95;;;;;;;;;;5029790;28;20045;-71
2023/01/23 15:12:49;;;;;;;5.70;2.80;;;;;;;;;;5021503;28;20038;-71
2023/01/23 15:15:19;;;;;;;0.43;0.43;;;;;;;;;;5029677;28;20055;-69
2023/01/23 15:17:49;;;;;;;5.00;1.08;;;;;;;;;;5035159;28;20457;-70
2023/01/23 15:20:35;;;;;;;2.80;1.55;;;;;;;;;;5025340;28;20060;-69
2023/01/23 15:23:03;;;;;;;;;;;;;;;;;;5033724;28;20061;-69
2023/01/23 15:25:33;;;;;;;1.95;1.02;;;;;;;;;;5032298;28;20365;-69
2023/01/23 15:28:03;;;;;;;3.10;1.50;;;;;;;;;;5028476;28;20601;-69
2023/01/23 15:30:37;;;;;;;1.45;1.23;;;;;;;;;;5038851;28;20107;-70
2023/01/23 15:33:06;;;;;;;3.50;2.28;;;;;;;;;;5032118;28;20133;-70
2023/01/23 15:35:35;;;;;;;4.70;1.42;;;;;;;;;;5027694;28;20081;-71
2023/01/23 15:38:03;;;;;;;2.55;1.70;;;;;;;;;;5031943;28;20046;-69
2023/01/23 15:40:35;;;;;;;8.20;2.63;;;;;;;;;;5032382;28;20406;-69
2023/01/23 15:43:07;;;;;;;3.65;1.83;;;;;;;;;;5031414;28;20049;-69
2023/01/23 15:45:35;;;;;;;3.30;1.42;;;;;;;;;;5030889;28;20473;-70
2023/01/23 15:48:04;;;;;;;3.63;2.22;;;;;;;;;;5032461;28;20046;-68
2023/01/23 15:50:32;;;;;;;1.05;1.05;;;;;;;;;;5029489;28;20041;-71
2023/01/23 15:53:01;;;;;;;4.97;2.13;;;;;;;;;;5029571;28;20045;-70